sensor_id;sensor_type;location;lat;lon;timestamp;pressure;altitude;pressure_sealevel;temperature;humidity
17764;BME280;22245;52.832;13.816;2023-05-03T00:02:39;102477.44;;;10.02;57.40
17764;BME280;22245;52.832;13.816;2023-05-03T00:06:12;102482.00;;;9.99;57.12
17764;BME280;22245;52.832;13.816;2023-05-03T00:09:34;102473.06;;;10.01;56.75
17764;BME280;22245;52.832;13.816;2023-05-03T00:12:56;102481.13;;;9.99;56.72
17764;BME280;22245;52.832;13.816;2023-05-03T00:16:18;102487.56;;;9.95;56.84
17764;BME280;22245;52.832;13.816;2023-05-03T00:19:39;102491.09;;;9.95;57.22
17764;BME280;22245;52.832;13.816;2023-05-03T00:23:03;102490.31;;;9.93;56.49
17764;BME280;22245;52.832;13.816;2023-05-03T00:26:24;102481.47;;;9.93;57.18
17764;BME280;22245;52.832;13.816;2023-05-03T00:29:49;102489.53;;;9.91;57.16
17764;BME280;22245;52.832;13.816;2023-05-03T00:33:11;102492.22;;;9.91;56.86
17764;BME280;22245;52.832;13.816;2023-05-03T00:36:32;102494.09;;;9.89;56.92
17764;BME280;22245;52.832;13.816;2023-05-03T00:39:57;102493.31;;;9.87;58.00
17764;BME280;22245;52.832;13.816;2023-05-03T00:43:19;102486.34;;;9.84;58.14
17764;BME280;22245;52.832;13.816;2023-05-03T00:46:40;102476.66;;;9.83;56.75
17764;BME280;22245;52.832;13.816;2023-05-03T00:50:02;102482.22;;;9.79;56.28
17764;BME280;22245;52.832;13.816;2023-05-03T00:53:25;102484.97;;;9.77;56.74
17764;BME280;22245;52.832;13.816;2023-05-03T00:56:48;102488.63;;;9.75;56.35
17764;BME280;22245;52.832;13.816;2023-05-03T01:00:12;102489.59;;;9.74;56.49
17764;BME280;22245;52.832;13.816;2023-05-03T01:03:35;102495.00;;;9.72;56.74
17764;BME280;22245;52.832;13.816;2023-05-03T01:07:07;102493.34;;;9.69;57.07
17764;BME280;22245;52.832;13.816;2023-05-03T01:10:37;102490.78;;;9.68;56.82
17764;BME280;22245;52.832;13.816;2023-05-03T01:14:09;102488.38;;;9.63;56.18
17764;BME280;22245;52.832;13.816;2023-05-03T01:17:38;102498.47;;;9.56;55.09
17764;BME280;22245;52.832;13.816;2023-05-03T01:21:02;102502.16;;;9.54;55.89
17764;BME280;22245;52.832;13.816;2023-05-03T01:24:27;102504.97;;;9.51;54.64
17764;BME280;22245;52.832;13.816;2023-05-03T01:27:52;102506.22;;;9.44;54.53
17764;BME280;22245;52.832;13.816;2023-05-03T01:31:18;102504.81;;;9.36;54.66
17764;BME280;22245;52.832;13.816;2023-05-03T01:34:50;102504.97;;;9.33;55.15
17764;BME280;22245;52.832;13.816;2023-05-03T01:38:16;102506.88;;;9.31;54.85
17764;BME280;22245;52.832;13.816;2023-05-03T01:41:39;102501.66;;;9.30;55.05
17764;BME280;22245;52.832;13.816;2023-05-03T01:45:04;102502.66;;;9.27;55.08
17764;BME280;22245;52.832;13.816;2023-05-03T01:48:26;102504.44;;;9.26;55.99
17764;BME280;22245;52.832;13.816;2023-05-03T01:51:49;102509.06;;;9.23;55.48
17764;BME280;22245;52.832;13.816;2023-05-03T01:55:10;102513.59;;;9.21;55.48
17764;BME280;22245;52.832;13.816;2023-05-03T01:58:31;102502.25;;;9.17;56.05
17764;BME280;22245;52.832;13.816;2023-05-03T02:01:54;102504.22;;;9.14;56.78
17764;BME280;22245;52.832;13.816;2023-05-03T02:05:16;102514.31;;;9.07;57.28
17764;BME280;22245;52.832;13.816;2023-05-03T02:08:38;102518.22;;;9.00;58.56
17764;BME280;22245;52.832;13.816;2023-05-03T02:11:59;102512.31;;;8.93;59.16
17764;BME280;22245;52.832;13.816;2023-05-03T02:15:21;102512.78;;;8.83;59.42
17764;BME280;22245;52.832;13.816;2023-05-03T02:18:43;102513.09;;;8.77;59.79
17764;BME280;22245;52.832;13.816;2023-05-03T02:22:06;102516.13;;;8.69;60.08
17764;BME280;22245;52.832;13.816;2023-05-03T02:25:28;102516.50;;;8.62;60.31
17764;BME280;22245;52.832;13.816;2023-05-03T02:28:50;102524.03;;;8.52;61.37
17764;BME280;22245;52.832;13.816;2023-05-03T02:32:12;102526.25;;;8.42;61.97
17764;BME280;22245;52.832;13.816;2023-05-03T02:35:35;102533.72;;;8.34;61.81
17764;BME280;22245;52.832;13.816;2023-05-03T02:38:58;102532.28;;;8.26;61.88
17764;BME280;22245;52.832;13.816;2023-05-03T02:42:20;102532.56;;;8.20;61.70
17764;BME280;22245;52.832;13.816;2023-05-03T02:45:42;102538.22;;;8.13;62.55
17764;BME280;22245;52.832;13.816;2023-05-03T02:49:04;102537.72;;;8.04;62.68
17764;BME280;22245;52.832;13.816;2023-05-03T02:52:27;102540.84;;;7.93;63.42
17764;BME280;22245;52.832;13.816;2023-05-03T02:55:49;102548.44;;;7.82;63.37
17764;BME280;22245;52.832;13.816;2023-05-03T02:59:11;102548.84;;;7.73;64.13
17764;BME280;22245;52.832;13.816;2023-05-03T03:02:33;102548.47;;;7.61;64.29
17764;BME280;22245;52.832;13.816;2023-05-03T03:05:54;102551.44;;;7.53;64.74
17764;BME280;22245;52.832;13.816;2023-05-03T03:09:17;102550.94;;;7.45;64.64
17764;BME280;22245;52.832;13.816;2023-05-03T03:12:39;102555.75;;;7.35;64.80
17764;BME280;22245;52.832;13.816;2023-05-03T03:16:04;102550.91;;;7.24;64.96
17764;BME280;22245;52.832;13.816;2023-05-03T03:19:27;102553.84;;;7.17;65.29
17764;BME280;22245;52.832;13.816;2023-05-03T03:22:48;102554.25;;;7.07;66.16
17764;BME280;22245;52.832;13.816;2023-05-03T03:26:12;102558.09;;;7.00;66.16
17764;BME280;22245;52.832;13.816;2023-05-03T03:29:34;102563.63;;;6.94;66.26
17764;BME280;22245;52.832;13.816;2023-05-03T03:32:57;102574.53;;;6.86;66.77
17764;BME280;22245;52.832;13.816;2023-05-03T03:36:26;102574.69;;;6.81;66.89
17764;BME280;22245;52.832;13.816;2023-05-03T03:39:47;102572.31;;;6.75;67.10
17764;BME280;22245;52.832;13.816;2023-05-03T03:43:10;102573.34;;;6.71;67.29
17764;BME280;22245;52.832;13.816;2023-05-03T03:46:33;102569.19;;;6.65;67.32
17764;BME280;22245;52.832;13.816;2023-05-03T03:49:54;102577.22;;;6.62;67.68
17764;BME280;22245;52.832;13.816;2023-05-03T03:53:16;102576.41;;;6.60;67.74
17764;BME280;22245;52.832;13.816;2023-05-03T03:56:39;102574.75;;;6.58;67.85
17764;BME280;22245;52.832;13.816;2023-05-03T04:00:02;102589.03;;;6.54;67.88
17764;BME280;22245;52.832;13.816;2023-05-03T04:03:36;102584.69;;;6.53;67.93
17764;BME280;22245;52.832;13.816;2023-05-03T04:06:58;102587.38;;;6.51;67.87
17764;BME280;22245;52.832;13.816;2023-05-03T04:10:20;102588.38;;;6.48;68.19
17764;BME280;22245;52.832;13.816;2023-05-03T04:13:42;102592.84;;;6.46;68.52
17764;BME280;22245;52.832;13.816;2023-05-03T04:17:06;102589.34;;;6.46;68.58
17764;BME280;22245;52.832;13.816;2023-05-03T04:20:27;102599.06;;;6.45;68.50
17764;BME280;22245;52.832;13.816;2023-05-03T04:23:50;102606.88;;;6.48;68.14
17764;BME280;22245;52.832;13.816;2023-05-03T04:27:12;102613.00;;;6.50;67.95
17764;BME280;22245;52.832;13.816;2023-05-03T04:30:34;102611.16;;;6.53;67.54
17764;BME280;22245;52.832;13.816;2023-05-03T04:33:58;102615.53;;;6.54;67.76
17764;BME280;22245;52.832;13.816;2023-05-03T04:37:21;102616.31;;;6.56;67.50
17764;BME280;22245;52.832;13.816;2023-05-03T04:40:43;102625.91;;;6.58;66.76
17764;BME280;22245;52.832;13.816;2023-05-03T04:44:05;102622.34;;;6.59;67.14
17764;BME280;22245;52.832;13.816;2023-05-03T04:47:27;102627.63;;;6.59;66.51
17764;BME280;22245;52.832;13.816;2023-05-03T04:50:50;102629.28;;;6.63;66.01
17764;BME280;22245;52.832;13.816;2023-05-03T04:54:14;102625.63;;;6.66;65.97
17764;BME280;22245;52.832;13.816;2023-05-03T04:57:36;102631.72;;;6.68;65.84
17764;BME280;22245;52.832;13.816;2023-05-03T05:01:00;102631.72;;;6.68;65.50
17764;BME280;22245;52.832;13.816;2023-05-03T05:04:23;102636.91;;;6.71;65.32
17764;BME280;22245;52.832;13.816;2023-05-03T05:07:46;102635.06;;;6.73;65.35
17764;BME280;22245;52.832;13.816;2023-05-03T05:11:11;102638.59;;;6.74;64.90
17764;BME280;22245;52.832;13.816;2023-05-03T05:14:34;102648.13;;;6.78;65.08
17764;BME280;22245;52.832;13.816;2023-05-03T05:17:55;102648.13;;;6.78;64.56
17764;BME280;22245;52.832;13.816;2023-05-03T05:21:17;102647.13;;;6.80;64.43
17764;BME280;22245;52.832;13.816;2023-05-03T05:24:41;102646.28;;;6.80;64.49
17764;BME280;22245;52.832;13.816;2023-05-03T05:28:05;102652.13;;;6.88;64.83
17764;BME280;22245;52.832;13.816;2023-05-03T05:31:27;102641.38;;;6.93;64.36
17764;BME280;22245;52.832;13.816;2023-05-03T05:34:49;102651.84;;;6.96;64.43
17764;BME280;22245;52.832;13.816;2023-05-03T05:38:16;102657.94;;;6.98;64.21
17764;BME280;22245;52.832;13.816;2023-05-03T05:41:39;102662.19;;;7.02;64.38
17764;BME280;22245;52.832;13.816;2023-05-03T05:45:02;102661.09;;;7.08;64.26
17764;BME280;22245;52.832;13.816;2023-05-03T05:48:24;102667.22;;;7.10;63.99
17764;BME280;22245;52.832;13.816;2023-05-03T05:51:45;102667.09;;;7.13;63.95
17764;BME280;22245;52.832;13.816;2023-05-03T05:55:07;102665.94;;;7.19;64.33
17764;BME280;22245;52.832;13.816;2023-05-03T05:58:35;102666.53;;;7.27;64.36
17764;BME280;22245;52.832;13.816;2023-05-03T06:01:57;102674.16;;;7.35;64.21
17764;BME280;22245;52.832;13.816;2023-05-03T06:05:20;102672.00;;;7.45;64.24
17764;BME280;22245;52.832;13.816;2023-05-03T06:08:42;102670.69;;;7.55;63.24
17764;BME280;22245;52.832;13.816;2023-05-03T06:12:04;102673.78;;;7.66;63.17
17764;BME280;22245;52.832;13.816;2023-05-03T06:15:28;102675.22;;;7.74;62.74
17764;BME280;22245;52.832;13.816;2023-05-03T06:18:50;102676.69;;;7.81;62.78
17764;BME280;22245;52.832;13.816;2023-05-03T06:22:12;102679.16;;;7.86;63.21
17764;BME280;22245;52.832;13.816;2023-05-03T06:25:34;102677.22;;;7.89;63.50
17764;BME280;22245;52.832;13.816;2023-05-03T06:28:56;102682.06;;;8.00;63.46
17764;BME280;22245;52.832;13.816;2023-05-03T06:32:22;102680.88;;;8.07;62.38
17764;BME280;22245;52.832;13.816;2023-05-03T06:35:44;102677.09;;;8.13;62.28
17764;BME280;22245;52.832;13.816;2023-05-03T06:39:08;102678.53;;;8.20;62.07
17764;BME280;22245;52.832;13.816;2023-05-03T06:42:30;102679.16;;;8.27;62.36
17764;BME280;22245;52.832;13.816;2023-05-03T06:45:59;102684.91;;;8.37;61.78
17764;BME280;22245;52.832;13.816;2023-05-03T06:49:22;102684.69;;;8.42;61.54
17764;BME280;22245;52.832;13.816;2023-05-03T06:52:44;102685.22;;;8.50;61.89
17764;BME280;22245;52.832;13.816;2023-05-03T06:56:06;102674.28;;;8.58;61.29
17764;BME280;22245;52.832;13.816;2023-05-03T06:59:27;102678.91;;;8.73;60.41
17764;BME280;22245;52.832;13.816;2023-05-03T07:02:49;102684.72;;;8.81;59.85
17764;BME280;22245;52.832;13.816;2023-05-03T07:06:12;102688.06;;;8.85;58.14
17764;BME280;22245;52.832;13.816;2023-05-03T07:09:34;102683.19;;;8.95;58.33
17764;BME280;22245;52.832;13.816;2023-05-03T07:13:03;102680.38;;;8.98;57.87
17764;BME280;22245;52.832;13.816;2023-05-03T07:16:24;102687.38;;;9.01;57.40
17764;BME280;22245;52.832;13.816;2023-05-03T07:19:46;102689.94;;;9.02;55.48
17764;BME280;22245;52.832;13.816;2023-05-03T07:23:10;102688.84;;;9.06;56.71
17764;BME280;22245;52.832;13.816;2023-05-03T07:26:31;102687.78;;;9.10;54.05
17764;BME280;22245;52.832;13.816;2023-05-03T07:29:53;102684.97;;;9.14;52.60
17764;BME280;22245;52.832;13.816;2023-05-03T07:33:14;102692.50;;;9.23;53.56
17764;BME280;22245;52.832;13.816;2023-05-03T07:36:36;102680.78;;;9.27;53.57
17764;BME280;22245;52.832;13.816;2023-05-03T07:39:59;102690.19;;;9.34;54.25
17764;BME280;22245;52.832;13.816;2023-05-03T07:43:22;102685.50;;;9.39;52.38
17764;BME280;22245;52.832;13.816;2023-05-03T07:46:43;102687.84;;;9.46;53.34
17764;BME280;22245;52.832;13.816;2023-05-03T07:50:06;102684.59;;;9.58;53.06
17764;BME280;22245;52.832;13.816;2023-05-03T07:53:28;102674.66;;;9.62;50.95
17764;BME280;22245;52.832;13.816;2023-05-03T07:56:52;102677.09;;;9.66;51.92
17764;BME280;22245;52.832;13.816;2023-05-03T08:00:15;102675.84;;;9.74;52.08
17764;BME280;22245;52.832;13.816;2023-05-03T08:03:37;102671.91;;;9.81;50.68
17764;BME280;22245;52.832;13.816;2023-05-03T08:06:59;102684.78;;;9.90;50.42
17764;BME280;22245;52.832;13.816;2023-05-03T08:10:21;102670.88;;;10.01;50.29
17764;BME280;22245;52.832;13.816;2023-05-03T08:13:44;102669.56;;;10.10;50.70
17764;BME280;22245;52.832;13.816;2023-05-03T08:17:05;102671.03;;;10.16;49.99
17764;BME280;22245;52.832;13.816;2023-05-03T08:20:26;102669.59;;;10.26;50.53
17764;BME280;22245;52.832;13.816;2023-05-03T08:23:48;102669.03;;;10.37;48.79
17764;BME280;22245;52.832;13.816;2023-05-03T08:27:09;102670.56;;;10.42;47.99
17764;BME280;22245;52.832;13.816;2023-05-03T08:30:34;102670.91;;;10.52;47.52
17764;BME280;22245;52.832;13.816;2023-05-03T08:33:55;102673.31;;;10.57;48.09
17764;BME280;22245;52.832;13.816;2023-05-03T08:37:17;102665.34;;;10.57;47.83
17764;BME280;22245;52.832;13.816;2023-05-03T08:40:39;102667.59;;;10.65;48.55
17764;BME280;22245;52.832;13.816;2023-05-03T08:44:02;102672.75;;;10.68;47.73
17764;BME280;22245;52.832;13.816;2023-05-03T08:47:26;102663.63;;;10.72;47.57
17764;BME280;22245;52.832;13.816;2023-05-03T08:50:52;102663.28;;;10.78;46.71
17764;BME280;22245;52.832;13.816;2023-05-03T08:54:16;102664.66;;;10.85;47.79
17764;BME280;22245;52.832;13.816;2023-05-03T08:57:39;102659.94;;;10.91;47.25
17764;BME280;22245;52.832;13.816;2023-05-03T09:01:05;102666.63;;;10.98;47.15
17764;BME280;22245;52.832;13.816;2023-05-03T09:04:32;102667.16;;;11.05;46.53
17764;BME280;22245;52.832;13.816;2023-05-03T09:08:04;102655.97;;;11.14;47.36
17764;BME280;22245;52.832;13.816;2023-05-03T09:11:27;102663.34;;;11.25;46.55
17764;BME280;22245;52.832;13.816;2023-05-03T09:14:49;102673.66;;;11.31;45.67
17764;BME280;22245;52.832;13.816;2023-05-03T09:18:13;102668.16;;;11.34;45.88
17764;BME280;22245;52.832;13.816;2023-05-03T09:21:38;102661.97;;;11.34;45.17
17764;BME280;22245;52.832;13.816;2023-05-03T09:25:00;102669.09;;;11.33;44.91
17764;BME280;22245;52.832;13.816;2023-05-03T09:28:24;102666.78;;;11.27;44.71
17764;BME280;22245;52.832;13.816;2023-05-03T09:31:57;102670.00;;;11.18;44.80
17764;BME280;22245;52.832;13.816;2023-05-03T09:35:20;102670.94;;;11.17;45.79
17764;BME280;22245;52.832;13.816;2023-05-03T09:38:43;102671.47;;;11.23;45.64
17764;BME280;22245;52.832;13.816;2023-05-03T09:42:12;102685.88;;;11.35;45.10
17764;BME280;22245;52.832;13.816;2023-05-03T09:45:34;102673.81;;;11.44;44.24
17764;BME280;22245;52.832;13.816;2023-05-03T09:48:56;102673.38;;;11.52;45.21
17764;BME280;22245;52.832;13.816;2023-05-03T09:52:18;102676.81;;;11.54;43.63
17764;BME280;22245;52.832;13.816;2023-05-03T09:55:43;102665.47;;;11.50;42.98
17764;BME280;22245;52.832;13.816;2023-05-03T09:59:08;102659.84;;;11.55;43.76
17764;BME280;22245;52.832;13.816;2023-05-03T10:02:30;102667.44;;;11.63;43.51
17764;BME280;22245;52.832;13.816;2023-05-03T10:05:52;102659.72;;;11.72;43.35
17764;BME280;22245;52.832;13.816;2023-05-03T10:09:16;102657.84;;;11.75;43.16
17764;BME280;22245;52.832;13.816;2023-05-03T10:12:41;102666.94;;;11.70;42.22
17764;BME280;22245;52.832;13.816;2023-05-03T10:16:05;102672.00;;;11.61;43.48
17764;BME280;22245;52.832;13.816;2023-05-03T10:19:33;102655.69;;;11.65;42.65
17764;BME280;22245;52.832;13.816;2023-05-03T10:23:14;102651.81;;;11.71;41.98
17764;BME280;22245;52.832;13.816;2023-05-03T10:26:36;102645.25;;;11.77;41.81
17764;BME280;22245;52.832;13.816;2023-05-03T10:29:59;102652.72;;;11.86;41.79
17764;BME280;22245;52.832;13.816;2023-05-03T10:33:29;102660.16;;;11.95;41.29
17764;BME280;22245;52.832;13.816;2023-05-03T10:36:53;102659.53;;;12.06;42.04
17764;BME280;22245;52.832;13.816;2023-05-03T10:40:15;102650.13;;;12.15;41.85
17764;BME280;22245;52.832;13.816;2023-05-03T10:43:41;102646.38;;;12.18;40.32
17764;BME280;22245;52.832;13.816;2023-05-03T10:47:15;102643.50;;;12.21;40.12
17764;BME280;22245;52.832;13.816;2023-05-03T10:50:37;102646.88;;;12.24;40.12
17764;BME280;22245;52.832;13.816;2023-05-03T10:53:58;102637.69;;;12.28;39.16
17764;BME280;22245;52.832;13.816;2023-05-03T10:57:20;102633.13;;;12.30;39.23
17764;BME280;22245;52.832;13.816;2023-05-03T11:00:48;102638.84;;;12.39;39.28
17764;BME280;22245;52.832;13.816;2023-05-03T11:04:17;102639.97;;;12.49;40.16
17764;BME280;22245;52.832;13.816;2023-05-03T11:07:43;102638.34;;;12.61;41.25
17764;BME280;22245;52.832;13.816;2023-05-03T11:11:04;102636.91;;;12.70;40.17
17764;BME280;22245;52.832;13.816;2023-05-03T11:14:28;102637.25;;;12.78;41.09
17764;BME280;22245;52.832;13.816;2023-05-03T11:17:50;102634.19;;;12.84;39.18
17764;BME280;22245;52.832;13.816;2023-05-03T11:21:14;102639.16;;;12.91;38.63
17764;BME280;22245;52.832;13.816;2023-05-03T11:24:35;102636.38;;;12.92;38.52
17764;BME280;22245;52.832;13.816;2023-05-03T11:27:57;102630.53;;;12.85;36.90
17764;BME280;22245;52.832;13.816;2023-05-03T11:31:19;102632.25;;;12.86;37.17
17764;BME280;22245;52.832;13.816;2023-05-03T11:34:41;102623.09;;;12.91;37.31
17764;BME280;22245;52.832;13.816;2023-05-03T11:38:04;102614.88;;;12.94;37.17
17764;BME280;22245;52.832;13.816;2023-05-03T11:41:25;102611.81;;;13.00;38.34
17764;BME280;22245;52.832;13.816;2023-05-03T11:44:47;102616.53;;;13.09;39.73
17764;BME280;22245;52.832;13.816;2023-05-03T11:48:10;102615.72;;;13.22;38.12
17764;BME280;22245;52.832;13.816;2023-05-03T11:51:33;102612.81;;;13.25;37.91
17764;BME280;22245;52.832;13.816;2023-05-03T11:54:59;102604.25;;;13.20;38.81
17764;BME280;22245;52.832;13.816;2023-05-03T11:58:24;102603.09;;;13.24;38.72
17764;BME280;22245;52.832;13.816;2023-05-03T12:01:46;102600.13;;;13.28;38.51
17764;BME280;22245;52.832;13.816;2023-05-03T12:05:08;102593.50;;;13.34;38.07
17764;BME280;22245;52.832;13.816;2023-05-03T12:08:32;102594.63;;;13.44;38.93
17764;BME280;22245;52.832;13.816;2023-05-03T12:11:59;102595.69;;;13.55;38.71
17764;BME280;22245;52.832;13.816;2023-05-03T12:15:29;102601.19;;;13.66;37.91
17764;BME280;22245;52.832;13.816;2023-05-03T12:18:54;102596.47;;;13.70;37.46
17764;BME280;22245;52.832;13.816;2023-05-03T12:22:22;102591.75;;;13.73;37.12
17764;BME280;22245;52.832;13.816;2023-05-03T12:25:45;102595.94;;;13.78;37.17
17764;BME280;22245;52.832;13.816;2023-05-03T12:29:10;102594.31;;;13.75;37.97
17764;BME280;22245;52.832;13.816;2023-05-03T12:32:31;102590.38;;;13.81;37.06
17764;BME280;22245;52.832;13.816;2023-05-03T12:35:53;102590.16;;;13.84;38.68
17764;BME280;22245;52.832;13.816;2023-05-03T12:39:18;102583.41;;;13.91;37.16
17764;BME280;22245;52.832;13.816;2023-05-03T12:42:41;102589.28;;;13.96;36.85
17764;BME280;22245;52.832;13.816;2023-05-03T12:46:05;102580.94;;;14.01;37.17
17764;BME280;22245;52.832;13.816;2023-05-03T12:49:46;102579.66;;;13.94;37.67
17764;BME280;22245;52.832;13.816;2023-05-03T12:53:11;102571.94;;;13.76;37.69
17764;BME280;22245;52.832;13.816;2023-05-03T12:56:36;102578.38;;;13.73;37.85
17764;BME280;22245;52.832;13.816;2023-05-03T13:00:00;102578.47;;;13.72;37.49
17764;BME280;22245;52.832;13.816;2023-05-03T13:03:25;102574.72;;;13.74;37.19
17764;BME280;22245;52.832;13.816;2023-05-03T13:06:52;102564.88;;;13.88;37.13
17764;BME280;22245;52.832;13.816;2023-05-03T13:10:19;102568.50;;;14.00;37.26
17764;BME280;22245;52.832;13.816;2023-05-03T13:13:46;102567.63;;;14.12;36.89
17764;BME280;22245;52.832;13.816;2023-05-03T13:17:07;102557.09;;;14.22;37.15
17764;BME280;22245;52.832;13.816;2023-05-03T13:20:31;102558.88;;;14.35;37.45
17764;BME280;22245;52.832;13.816;2023-05-03T13:23:52;102560.78;;;14.45;37.43
17764;BME280;22245;52.832;13.816;2023-05-03T13:27:15;102554.13;;;14.51;36.64
17764;BME280;22245;52.832;13.816;2023-05-03T13:30:37;102541.81;;;14.48;36.99
17764;BME280;22245;52.832;13.816;2023-05-03T13:33:59;102538.78;;;14.53;37.08
17764;BME280;22245;52.832;13.816;2023-05-03T13:37:22;102533.44;;;14.53;37.64
17764;BME280;22245;52.832;13.816;2023-05-03T13:40:44;102540.19;;;14.59;37.38
17764;BME280;22245;52.832;13.816;2023-05-03T13:44:07;102532.13;;;14.59;37.16
17764;BME280;22245;52.832;13.816;2023-05-03T13:47:29;102523.22;;;14.58;36.94
17764;BME280;22245;52.832;13.816;2023-05-03T13:51:11;102520.78;;;14.55;37.60
17764;BME280;22245;52.832;13.816;2023-05-03T13:54:35;102526.53;;;14.62;36.07
17764;BME280;22245;52.832;13.816;2023-05-03T13:57:56;102522.34;;;14.71;35.93
17764;BME280;22245;52.832;13.816;2023-05-03T14:01:18;102520.78;;;14.80;35.92
17764;BME280;22245;52.832;13.816;2023-05-03T14:04:40;102515.69;;;14.88;35.86
17764;BME280;22245;52.832;13.816;2023-05-03T14:08:01;102500.00;;;14.95;35.65
17764;BME280;22245;52.832;13.816;2023-05-03T14:11:25;102503.81;;;15.03;35.90
17764;BME280;22245;52.832;13.816;2023-05-03T14:14:46;102510.44;;;15.11;35.79
17764;BME280;22245;52.832;13.816;2023-05-03T14:18:08;102500.09;;;15.17;35.52
17764;BME280;22245;52.832;13.816;2023-05-03T14:21:30;102493.03;;;15.28;35.46
17764;BME280;22245;52.832;13.816;2023-05-03T14:24:52;102494.63;;;15.42;34.78
17764;BME280;22245;52.832;13.816;2023-05-03T14:28:15;102494.41;;;15.56;34.78
17764;BME280;22245;52.832;13.816;2023-05-03T14:31:37;102490.63;;;15.70;34.74
17764;BME280;22245;52.832;13.816;2023-05-03T14:34:59;102486.22;;;15.81;33.52
17764;BME280;22245;52.832;13.816;2023-05-03T14:38:21;102488.53;;;15.85;33.43
17764;BME280;22245;52.832;13.816;2023-05-03T14:41:43;102495.38;;;16.01;33.54
17764;BME280;22245;52.832;13.816;2023-05-03T14:45:07;102499.75;;;16.25;33.28
17764;BME280;22245;52.832;13.816;2023-05-03T14:48:31;102496.84;;;16.60;32.54
17764;BME280;22245;52.832;13.816;2023-05-03T14:51:53;102486.16;;;17.24;31.42
17764;BME280;22245;52.832;13.816;2023-05-03T14:55:14;102489.16;;;18.24;30.38
17764;BME280;22245;52.832;13.816;2023-05-03T14:58:36;102487.16;;;18.85;28.92
17764;BME280;22245;52.832;13.816;2023-05-03T15:01:59;102479.13;;;19.43;27.67
17764;BME280;22245;52.832;13.816;2023-05-03T15:05:20;102481.91;;;19.13;27.44
17764;BME280;22245;52.832;13.816;2023-05-03T15:08:42;102482.78;;;19.14;28.12
17764;BME280;22245;52.832;13.816;2023-05-03T15:12:04;102480.22;;;18.73;28.33
17764;BME280;22245;52.832;13.816;2023-05-03T15:15:25;102484.63;;;18.34;29.07
17764;BME280;22245;52.832;13.816;2023-05-03T15:18:48;102480.09;;;18.64;28.47
17764;BME280;22245;52.832;13.816;2023-05-03T15:22:10;102474.25;;;18.79;29.56
17764;BME280;22245;52.832;13.816;2023-05-03T15:25:32;102470.69;;;18.88;29.13
17764;BME280;22245;52.832;13.816;2023-05-03T15:28:53;102470.13;;;19.04;29.11
17764;BME280;22245;52.832;13.816;2023-05-03T15:32:15;102469.50;;;19.40;28.55
17764;BME280;22245;52.832;13.816;2023-05-03T15:35:39;102471.78;;;19.63;27.78
17764;BME280;22245;52.832;13.816;2023-05-03T15:39:01;102476.66;;;19.59;28.09
17764;BME280;22245;52.832;13.816;2023-05-03T15:42:22;102480.59;;;19.65;28.00
17764;BME280;22245;52.832;13.816;2023-05-03T15:45:44;102478.50;;;19.97;27.69
17764;BME280;22245;52.832;13.816;2023-05-03T15:49:06;102470.63;;;20.03;27.41
17764;BME280;22245;52.832;13.816;2023-05-03T15:52:28;102470.63;;;19.75;27.25
17764;BME280;22245;52.832;13.816;2023-05-03T15:55:51;102468.41;;;19.89;27.38
17764;BME280;22245;52.832;13.816;2023-05-03T15:59:16;102469.94;;;20.19;26.66
17764;BME280;22245;52.832;13.816;2023-05-03T16:02:38;102458.75;;;20.50;26.82
17764;BME280;22245;52.832;13.816;2023-05-03T16:06:00;102465.50;;;20.82;26.28
17764;BME280;22245;52.832;13.816;2023-05-03T16:09:23;102462.81;;;21.09;25.87
17764;BME280;22245;52.832;13.816;2023-05-03T16:12:45;102466.56;;;21.16;26.08
17764;BME280;22245;52.832;13.816;2023-05-03T16:16:07;102461.59;;;21.30;25.91
17764;BME280;22245;52.832;13.816;2023-05-03T16:19:29;102456.75;;;21.42;26.53
17764;BME280;22245;52.832;13.816;2023-05-03T16:22:50;102449.06;;;21.29;25.51
17764;BME280;22245;52.832;13.816;2023-05-03T16:26:14;102454.03;;;21.15;25.89
17764;BME280;22245;52.832;13.816;2023-05-03T16:29:37;102447.88;;;21.05;26.00
17764;BME280;22245;52.832;13.816;2023-05-03T16:32:59;102448.56;;;21.07;25.83
17764;BME280;22245;52.832;13.816;2023-05-03T16:36:21;102449.03;;;21.02;26.49
17764;BME280;22245;52.832;13.816;2023-05-03T16:39:43;102446.59;;;20.91;25.92
17764;BME280;22245;52.832;13.816;2023-05-03T16:43:06;102452.41;;;20.23;26.83
17764;BME280;22245;52.832;13.816;2023-05-03T16:46:30;102447.88;;;19.68;27.22
17764;BME280;22245;52.832;13.816;2023-05-03T16:49:52;102444.16;;;19.41;28.32
17764;BME280;22245;52.832;13.816;2023-05-03T16:53:13;102436.47;;;18.99;29.02
17764;BME280;22245;52.832;13.816;2023-05-03T16:56:35;102441.31;;;18.65;29.46
17764;BME280;22245;52.832;13.816;2023-05-03T16:59:58;102440.16;;;18.29;29.63
17764;BME280;22245;52.832;13.816;2023-05-03T17:03:28;102441.84;;;18.10;30.00
17764;BME280;22245;52.832;13.816;2023-05-03T17:06:50;102445.41;;;17.79;31.72
17764;BME280;22245;52.832;13.816;2023-05-03T17:10:12;102446.75;;;17.54;32.58
17764;BME280;22245;52.832;13.816;2023-05-03T17:13:33;102456.53;;;17.45;33.82
17764;BME280;22245;52.832;13.816;2023-05-03T17:16:57;102447.66;;;17.33;33.36
17764;BME280;22245;52.832;13.816;2023-05-03T17:20:19;102453.31;;;17.30;33.53
17764;BME280;22245;52.832;13.816;2023-05-03T17:23:40;102456.13;;;17.29;33.73
17764;BME280;22245;52.832;13.816;2023-05-03T17:27:03;102455.81;;;17.22;34.13
17764;BME280;22245;52.832;13.816;2023-05-03T17:30:24;102452.09;;;17.13;34.58
17764;BME280;22245;52.832;13.816;2023-05-03T17:33:49;102452.81;;;17.15;34.48
17764;BME280;22245;52.832;13.816;2023-05-03T17:37:11;102453.25;;;17.20;34.34